Klihyam — WDB7218 — position and weather

sailwx.info

Track history (hours):
 
Tides and Currents Weather Stations Pressure Air Temp Water Temp Dewpoint Dewpoint Depression Visibility Wind Speed Wind Dir Waves Ship Positions

Klihyam

Owner: Sause Bros. Inc, COOS BAY, OR. More information available from US FCC via Universal Licensing System and Coast Guard Vessel Documentation Center.

Last reported at 2018-Jun-22 22:59 UTC. Time now 2018-Jun-22 23:01 UTC.
Position N 45°33' W 122°42'.

Length 35 m; draft 5.3 m.

Type: Towing. MMSI: 366938510.

Date/timePositionNaut miles runAvg speedWind from/ knotsBaromVisibWave heightAir tempDewpointWater temp
2018-Jun-22 22:59N 45°33' W 122°42'0 0.0
2018-Jun-22 22:29N 45°33' W 122°42'0 0.0
2018-Jun-22 21:59N 45°33' W 122°42'0 0.0
2018-Jun-22 21:29N 45°33' W 122°42'0 0.0
2018-Jun-22 20:47N 45°33' W 122°42'0 0.0
2018-Jun-22 20:26N 45°33' W 122°42'0 0.0
2018-Jun-22 20:00N 45°33' W 122°42'0 0.0
2018-Jun-22 19:30N 45°33' W 122°42'0 0.0
2018-Jun-22 19:00N 45°33' W 122°42'0 0.0
2018-Jun-22 18:30N 45°33' W 122°42'0 0.0
2018-Jun-22 18:00N 45°33' W 122°42'0 0.0
2018-Jun-22 17:30N 45°33' W 122°42'0 0.0
2018-Jun-22 17:00N 45°33' W 122°42'0 0.0
2018-Jun-22 16:30N 45°33' W 122°42'0 0.0
2018-Jun-22 16:00N 45°33' W 122°42'0 0.0
2018-Jun-22 15:30N 45°33' W 122°42'0 0.0
2018-Jun-22 15:00N 45°33' W 122°42'0 0.0
2018-Jun-22 14:30N 45°33' W 122°42'0 0.0
2018-Jun-22 13:59N 45°33' W 122°42'0 0.8
2018-Jun-22 13:30N 45°33' W 122°43'1 2.5
2018-Jun-22 13:00N 45°34' W 122°44'0 0.3
2018-Jun-22 12:27N 45°34' W 122°44'1 3.4
2018-Jun-22 12:00N 45°35' W 122°46'3 6.1
2018-Jun-22 11:30N 45°38' W 122°47'3 6.8
2018-Jun-22 11:00N 45°41' W 122°47'4 7.8
2018-Jun-22 10:30N 45°45' W 122°46'4 7.8
2018-Jun-22 10:00N 45°49' W 122°48'4 7.6
2018-Jun-22 09:30N 45°52' W 122°47'4 7.7
2018-Jun-22 09:00N 45°56' W 122°48'5 8.1
2018-Jun-22 08:23N 46°01' W 122°51'3 8.2
2018-Jun-22 08:00N 46°04' W 122°53'4 8.3
2018-Jun-22 07:31N 46°06' W 122°58'5 8.7
2018-Jun-22 06:59N 46°09' W 123°03'4 8.9
2018-Jun-22 06:30N 46°11' W 123°08'7 9.1
2018-Jun-22 05:44N 46°09' W 123°18'2 9.4
2018-Jun-22 05:30N 46°09' W 123°21'4 8.8
2018-Jun-22 05:00N 46°11' W 123°26'5 9.3
2018-Jun-22 04:30N 46°16' W 123°28'5 9.7
2018-Jun-22 04:00N 46°15' W 123°35'4 8.3
2018-Jun-22 03:30N 46°15' W 123°41'3 6.8
2018-Jun-22 03:01N 46°13' W 123°45'610.7
2018-Jun-22 02:29N 46°11' W 123°52'4 7.3
2018-Jun-22 02:00N 46°13' W 123°57'4 7.4
2018-Jun-22 01:30N 46°15' W 124°01'3 6.6
2018-Jun-22 01:00N 46°15' W 124°06'2 4.8
2018-Jun-22 00:30N 46°13' W 124°08'3 6.8
2018-Jun-22 00:01N 46°11' W 124°12'4 7.9
2018-Jun-21 23:31N 46°08' W 124°16'4 7.8
2018-Jun-21 23:00N 46°06' W 124°20'4 8.0
2018-Jun-21 22:30N 46°03' W 124°24'4 7.8
2018-Jun-21 22:01N 45°60' W 124°28'4 7.8
2018-Jun-21 21:30N 45°57' W 124°32'4 7.6
2018-Jun-21 21:00N 45°53' W 124°33'4 8.1
2018-Jun-21 20:30N 45°49' W 124°33'4 8.0
2018-Jun-21 20:00N 45°45' W 124°33'4 8.0
2018-Jun-21 19:30N 45°41' W 124°34'4 8.1
2018-Jun-21 19:00N 45°37' W 124°35'4 8.2
2018-Jun-21 18:30N 45°33' W 124°35'4 8.5
2018-Jun-21 18:00N 45°29' W 124°35'4 8.5
2018-Jun-21 17:30N 45°25' W 124°36'4 8.3
2018-Jun-21 16:58N 45°20' W 124°36'4 8.2
2018-Jun-21 16:29N 45°16' W 124°36'4 7.8
2018-Jun-21 15:56N 45°12' W 124°37'399 7.7
2018-Jun-19 12:17N 38°34' W 124°02'3 8.0
2018-Jun-19 11:58N 38°32' W 124°00'4 8.0
2018-Jun-19 11:30N 38°29' W 123°57'5 7.9
2018-Jun-19 10:53N 38°26' W 123°52'3 7.9
2018-Jun-19 10:30N 38°24' W 123°49'4 7.9
2018-Jun-19 10:00N 38°22' W 123°45'4 7.7
2018-Jun-19 09:30N 38°20' W 123°41'4 7.3
2018-Jun-19 09:00N 38°18' W 123°37'4 7.5
2018-Jun-19 08:30N 38°16' W 123°33'4 7.7
2018-Jun-19 08:00N 38°14' W 123°29'4 7.6
2018-Jun-19 07:30N 38°12' W 123°25'4 7.7
2018-Jun-19 07:00N 38°09' W 123°21'4 7.9
2018-Jun-19 06:30N 38°06' W 123°17'4 8.2
2018-Jun-19 06:00N 38°03' W 123°14'4 8.8
2018-Jun-19 05:30N 38°00' W 123°10'4 8.8
2018-Jun-19 05:00N 37°57' W 123°06'4 9.0
2018-Jun-19 04:30N 37°55' W 123°01'4 8.8
2018-Jun-19 04:00N 37°53' W 122°56'4 8.9
2018-Jun-19 03:30N 37°51' W 122°51'4 8.8
2018-Jun-19 03:00N 37°49' W 122°46'4 7.4
2018-Jun-19 02:30N 37°47' W 122°42'4 7.4
2018-Jun-19 02:00N 37°46' W 122°37'4 7.8
2018-Jun-19 01:30N 37°48' W 122°33'4 7.7
2018-Jun-19 01:00N 37°49' W 122°28'3 7.0
2018-Jun-19 00:30N 37°51' W 122°25'4 7.0
2018-Jun-19 00:00N 37°55' W 122°26'1 2.2
2018-Jun-18 23:31N 37°55' W 122°25'0 0.6
2018-Jun-18 23:00N 37°55' W 122°25'0 0.5
2018-Jun-18 22:30N 37°55' W 122°25'0 0.0
2018-Jun-18 21:58N 37°55' W 122°25'0 0.0
2018-Jun-18 21:28N 37°55' W 122°25'0 0.0
2018-Jun-18 20:58N 37°55' W 122°25'0 0.0
2018-Jun-18 20:28N 37°55' W 122°25'0 0.0
2018-Jun-18 19:58N 37°55' W 122°25'0 0.0
2018-Jun-18 19:28N 37°55' W 122°25'0 0.0
2018-Jun-18 18:16N 37°55' W 122°25'0 0.0
2018-Jun-18 17:58N 37°55' W 122°25'0 0.0
2018-Jun-18 17:28N 37°55' W 122°25'0 0.0
2018-Jun-18 15:58N 37°55' W 122°25'0 0.0
2018-Jun-18 08:10N 37°55' W 122°25'0 0.0
2018-Jun-18 07:34N 37°55' W 122°25'0 0.0
2018-Jun-17 23:25N 37°55' W 122°25'0 0.0
2018-Jun-17 22:46N 37°55' W 122°25'0 0.5
2018-Jun-17 22:16N 37°55' W 122°25'0 0.2
2018-Jun-17 22:00N 37°55' W 122°25'2 4.4
2018-Jun-17 21:30N 37°54' W 122°23'1 1.7
2018-Jun-17 21:00N 37°55' W 122°22'0 0.0
2018-Jun-17 20:26N 37°55' W 122°22'0 0.0
2018-Jun-17 19:50N 37°55' W 122°22'0 0.0
2018-Jun-17 19:23N 37°55' W 122°22'0 0.0
2018-Jun-17 18:59N 37°55' W 122°22'0 0.0
2018-Jun-17 18:29N 37°55' W 122°22'0 0.0
2018-Jun-17 17:59N 37°55' W 122°22'0 0.0
2018-Jun-17 17:29N 37°55' W 122°22'0 0.0
2018-Jun-17 16:59N 37°55' W 122°22'0 0.0
2018-Jun-17 16:29N 37°55' W 122°22'0 0.0
2018-Jun-17 15:59N 37°55' W 122°22'0 0.0
2018-Jun-17 15:29N 37°55' W 122°22'0 0.0
2018-Jun-17 14:59N 37°55' W 122°22'0 0.0
2018-Jun-17 14:29N 37°55' W 122°22'0 0.0
2018-Jun-17 13:53N 37°55' W 122°22'0 0.0
2018-Jun-17 13:29N 37°55' W 122°22'0 0.0
2018-Jun-17 12:59N 37°55' W 122°22'0 0.0
2018-Jun-17 12:29N 37°55' W 122°22'0 0.0
2018-Jun-17 11:59N 37°55' W 122°22'0 0.0
2018-Jun-17 11:17N 37°55' W 122°22'0 0.0
2018-Jun-17 10:53N 37°55' W 122°22'0 0.0
2018-Jun-17 10:29N 37°55' W 122°22'0 0.0
2018-Jun-17 09:59N 37°55' W 122°22'0 0.0
2018-Jun-17 09:29N 37°55' W 122°22'0 0.0
2018-Jun-17 08:59N 37°55' W 122°22'0 0.0
2018-Jun-17 08:29N 37°55' W 122°22'0 0.0
2018-Jun-17 07:47N 37°55' W 122°22'0 0.0
2018-Jun-17 07:17N 37°55' W 122°22'0 0.0
2018-Jun-17 06:59N 37°55' W 122°22'0 0.0
2018-Jun-17 06:11N 37°55' W 122°22'0 0.0
2018-Jun-17 05:59N 37°55' W 122°22'0 0.0
2018-Jun-17 05:29N 37°55' W 122°22'0 0.0
2018-Jun-17 04:05N 37°55' W 122°22'0 0.0
2018-Jun-17 03:59N 37°55' W 122°22'0 0.0
2018-Jun-17 03:29N 37°55' W 122°22'0 0.0
2018-Jun-17 02:59N 37°55' W 122°22'0 0.0
2018-Jun-17 02:17N 37°55' W 122°22'0 0.0
2018-Jun-17 02:00N 37°55' W 122°22'2 1.0
2018-Jun-16 23:49N 37°55' W 122°25'0 0.0
2018-Jun-16 23:10N 37°55' W 122°25'0 0.0
2018-Jun-16 22:43N 37°55' W 122°25'0 0.0
2018-Jun-16 22:25N 37°55' W 122°25'0 0.0
2018-Jun-16 21:52N 37°55' W 122°25'0 0.0
2018-Jun-16 21:28N 37°55' W 122°25'0 0.2
2018-Jun-16 21:00N 37°55' W 122°25'0 0.2
2018-Jun-16 20:30N 37°55' W 122°25'2 4.8
2018-Jun-16 20:00N 37°54' W 122°22'1 1.1
2018-Jun-16 19:29N 37°55' W 122°22'0 0.1
2018-Jun-16 18:55N 37°55' W 122°22'0 0.1
2018-Jun-16 18:19N 37°55' W 122°22'0 0.0
2018-Jun-16 17:58N 37°55' W 122°22'0 0.0
2018-Jun-16 17:28N 37°55' W 122°22'0 0.0
2018-Jun-16 16:40N 37°55' W 122°22'0 0.0
2018-Jun-16 16:28N 37°55' W 122°22'0 0.0
2018-Jun-16 15:58N 37°55' W 122°22'0 0.0
2018-Jun-16 15:25N 37°55' W 122°22'0 0.0
2018-Jun-16 14:55N 37°55' W 122°22'0 0.0
2018-Jun-16 14:25N 37°55' W 122°22'0 0.0
2018-Jun-16 13:58N 37°55' W 122°22'0 0.0
2018-Jun-16 13:25N 37°55' W 122°22'0 0.0
2018-Jun-16 11:13N 37°55' W 122°22'0 0.0
2018-Jun-16 10:55N 37°55' W 122°22'0 0.0
2018-Jun-16 10:25N 37°55' W 122°22'0 0.0
2018-Jun-16 09:55N 37°55' W 122°22'0 0.0
2018-Jun-16 09:13N 37°55' W 122°22'0 0.0
2018-Jun-16 08:55N 37°55' W 122°22'0 0.0
2018-Jun-16 08:25N 37°55' W 122°22'0 0.0
2018-Jun-16 07:43N 37°55' W 122°22'0 0.0
2018-Jun-16 06:13N 37°55' W 122°22'0 0.0
2018-Jun-16 05:37N 37°55' W 122°22'0 0.0
2018-Jun-16 05:19N 37°55' W 122°22'0 0.0
2018-Jun-16 04:55N 37°55' W 122°22'0 0.0
2018-Jun-16 04:19N 37°55' W 122°22'0 0.0
2018-Jun-16 03:55N 37°55' W 122°22'0 0.0
2018-Jun-16 03:22N 37°55' W 122°22'0 0.0
2018-Jun-16 02:55N 37°55' W 122°22'0 0.0
2018-Jun-16 02:25N 37°55' W 122°22'0 0.0
2018-Jun-16 01:58N 37°55' W 122°22'0 0.0
2018-Jun-16 00:01N 37°55' W 122°22'0 0.0
2018-Jun-15 23:52N 37°55' W 122°22'0 0.0
2018-Jun-15 23:28N 37°55' W 122°22'0 0.0
2018-Jun-15 22:58N 37°55' W 122°22'0 0.0
2018-Jun-15 22:28N 37°55' W 122°22'0 0.0
2018-Jun-15 21:40N 37°55' W 122°22'0 0.0
2018-Jun-15 21:22N 37°55' W 122°22'0 0.0
2018-Jun-15 20:58N 37°55' W 122°22'0 0.0
2018-Jun-15 20:28N 37°55' W 122°22'0 0.0
2018-Jun-15 19:40N 37°55' W 122°22'0 0.0
2018-Jun-15 19:28N 37°55' W 122°22'0 0.0
2018-Jun-15 18:52N 37°55' W 122°22'0 0.0
2018-Jun-15 17:46N 37°55' W 122°22'0 0.0
2018-Jun-15 17:28N 37°55' W 122°22'0 0.0
2018-Jun-15 16:58N 37°55' W 122°22'0 0.0
2018-Jun-15 16:19N 37°55' W 122°22'0 0.0
2018-Jun-15 15:55N 37°55' W 122°22'0 0.0
2018-Jun-15 15:25N 37°55' W 122°22'0 0.0
2018-Jun-15 14:55N 37°55' W 122°22'0 0.0
2018-Jun-15 14:28N 37°55' W 122°22'0 0.0
2018-Jun-15 13:55N 37°55' W 122°22'0 0.0
2018-Jun-15 13:25N 37°55' W 122°22'0 0.0
2018-Jun-15 12:55N 37°55' W 122°22'0 0.0
2018-Jun-15 12:25N 37°55' W 122°22'0 0.0
2018-Jun-15 11:55N 37°55' W 122°22'0 0.0
2018-Jun-15 11:25N 37°55' W 122°22'0 0.0
2018-Jun-15 09:37N 37°55' W 122°22'0 0.0
2018-Jun-15 09:19N 37°55' W 122°22'0 0.0
2018-Jun-15 08:55N 37°55' W 122°22'0 0.0
2018-Jun-15 08:19N 37°55' W 122°22'0 0.0
2018-Jun-15 07:55N 37°55' W 122°22'0 0.0
2018-Jun-15 07:28N 37°55' W 122°22'0 0.0
2018-Jun-15 06:52N 37°55' W 122°22'0 0.0
2018-Jun-15 04:13N 37°55' W 122°22'0 0.0
2018-Jun-15 03:52N 37°55' W 122°22'0 0.0
2018-Jun-15 03:28N 37°55' W 122°22'0 0.0
2018-Jun-15 02:58N 37°55' W 122°22'0 0.0
2018-Jun-15 02:30N 37°55' W 122°22'1 2.0
2018-Jun-15 02:00N 37°54' W 122°23'2 2.9
2018-Jun-15 01:26N 37°55' W 122°25'0 0.0
2018-Jun-15 00:56N 37°55' W 122°25'0 0.0
2018-Jun-15 00:26N 37°55' W 122°25'0 0.0
2018-Jun-14 23:56N 37°55' W 122°25'0 0.0
2018-Jun-14 23:26N 37°55' W 122°25'0 0.0
2018-Jun-14 22:50N 37°55' W 122°25'0 0.0
2018-Jun-14 21:56N 37°55' W 122°25'0 0.0
2018-Jun-14 21:29N 37°55' W 122°25'0 0.0
2018-Jun-14 19:44N 37°55' W 122°25'0 0.0
2018-Jun-14 19:26N 37°55' W 122°25'0 0.0
2018-Jun-14 17:32N 37°55' W 122°25'0 0.0
2018-Jun-14 17:14N 37°55' W 122°25'0 0.0
2018-Jun-14 16:56N 37°55' W 122°25'0 0.0
2018-Jun-14 16:26N 37°55' W 122°25'0 0.0
2018-Jun-14 15:50N 37°55' W 122°25'0 0.0
2018-Jun-14 15:17N 37°55' W 122°25'0 0.0
2018-Jun-14 14:56N 37°55' W 122°25'0 0.0
2018-Jun-14 14:23N 37°55' W 122°25'0 0.0
2018-Jun-14 11:56N 37°55' W 122°25'0 0.4
2018-Jun-14 11:13N 37°55' W 122°25'0 0.2
2018-Jun-14 11:00N 37°55' W 122°25'2 3.8
2018-Jun-14 10:30N 37°54' W 122°23'1 1.8
2018-Jun-14 09:54N 37°55' W 122°22'0 0.0
2018-Jun-14 09:30N 37°55' W 122°22'0 0.0
2018-Jun-14 09:00N 37°55' W 122°22'0 0.0
2018-Jun-14 08:30N 37°55' W 122°22'0 0.0
2018-Jun-14 08:00N 37°55' W 122°22'0 0.0
2018-Jun-14 07:30N 37°55' W 122°22'0 0.0
2018-Jun-14 07:00N 37°55' W 122°22'0 0.0
2018-Jun-14 06:30N 37°55' W 122°22'0 0.0
2018-Jun-14 06:00N 37°55' W 122°22'0 0.0
2018-Jun-14 05:30N 37°55' W 122°22'0 0.0
2018-Jun-14 04:55N 37°55' W 122°22'0 0.0
2018-Jun-14 04:25N 37°55' W 122°22'0 0.0
2018-Jun-14 03:58N 37°55' W 122°22'0 0.0
2018-Jun-14 03:25N 37°55' W 122°22'0 0.0
2018-Jun-14 02:52N 37°55' W 122°22'0 0.0
2018-Jun-14 02:28N 37°55' W 122°22'0 0.0
2018-Jun-14 01:58N 37°55' W 122°22'0 0.0
2018-Jun-14 01:28N 37°55' W 122°22'0 0.0
2018-Jun-14 00:58N 37°55' W 122°22'0 0.0
2018-Jun-14 00:28N 37°55' W 122°22'0 0.0
2018-Jun-13 23:55N 37°55' W 122°22'0 0.0
2018-Jun-13 23:28N 37°55' W 122°22'0 0.0
2018-Jun-13 22:58N 37°55' W 122°22'0 0.0
2018-Jun-13 22:28N 37°55' W 122°22'0 0.0
2018-Jun-13 21:58N 37°55' W 122°22'0 0.0
2018-Jun-13 21:28N 37°55' W 122°22'0 0.0
2018-Jun-13 20:52N 37°55' W 122°22'0 0.0
2018-Jun-13 20:28N 37°55' W 122°22'0 0.0
2018-Jun-13 19:58N 37°55' W 122°22'0 0.0
2018-Jun-13 19:28N 37°55' W 122°22'0 0.3
2018-Jun-13 18:55N 37°55' W 122°22'0 0.0
2018-Jun-13 18:19N 37°55' W 122°22'0 0.0
2018-Jun-13 17:55N 37°55' W 122°22'0 0.0
2018-Jun-13 17:25N 37°55' W 122°22'0 0.0
2018-Jun-13 16:55N 37°55' W 122°22'0 0.0
2018-Jun-13 16:28N 37°55' W 122°22'0 0.0
2018-Jun-13 15:55N 37°55' W 122°22'0 0.0
2018-Jun-13 15:28N 37°55' W 122°22'0 0.0
2018-Jun-13 14:58N 37°55' W 122°22'0 0.0
2018-Jun-13 14:25N 37°55' W 122°22'0 0.0
2018-Jun-13 13:37N 37°55' W 122°22'0 0.0
2018-Jun-13 13:25N 37°55' W 122°22'0 0.0
2018-Jun-13 12:55N 37°55' W 122°22'0 0.4
2018-Jun-13 12:25N 37°55' W 122°22'0 0.0
2018-Jun-13 11:55N 37°55' W 122°22'0 0.0
2018-Jun-13 11:25N 37°55' W 122°22'0 0.0
2018-Jun-13 10:49N 37°55' W 122°22'0 0.0
2018-Jun-13 10:13N 37°55' W 122°22'0 0.0
2018-Jun-13 09:55N 37°55' W 122°22'0 0.0
2018-Jun-13 09:25N 37°55' W 122°22'0 0.0
2018-Jun-13 08:49N 37°55' W 122°22'0 0.0
2018-Jun-13 08:25N 37°55' W 122°22'0 0.0
2018-Jun-13 07:55N 37°55' W 122°22'0 0.0
2018-Jun-13 07:19N 37°55' W 122°22'0 0.0
2018-Jun-13 06:55N 37°55' W 122°22'0 0.0
2018-Jun-13 06:25N 37°55' W 122°22'0 0.0
2018-Jun-13 05:55N 37°55' W 122°22'0 0.0
2018-Jun-13 05:28N 37°55' W 122°22'0 0.0
2018-Jun-13 04:58N 37°55' W 122°22'0 0.0
2018-Jun-13 04:25N 37°55' W 122°22'0 0.0
2018-Jun-13 03:58N 37°55' W 122°22'0 0.0
2018-Jun-13 03:28N 37°55' W 122°22'0 0.0
2018-Jun-13 02:58N 37°55' W 122°22'0 0.0
2018-Jun-13 02:28N 37°55' W 122°22'0 0.0
2018-Jun-13 01:58N 37°55' W 122°22'0 0.0
2018-Jun-13 01:28N 37°55' W 122°22'0 0.0
2018-Jun-13 00:58N 37°55' W 122°22'0 0.0
2018-Jun-13 00:28N 37°55' W 122°22'0 0.0
2018-Jun-12 23:58N 37°55' W 122°22'0 0.0
2018-Jun-12 23:28N 37°55' W 122°22'  
Track history (hours):
 
Tides and Currents Weather Stations Pressure Air Temp Water Temp Dewpoint Dewpoint Depression Visibility Wind Speed Wind Dir Waves Ship Positions

Klihyam

Owner: Sause Bros. Inc, COOS BAY, OR. More information available from US FCC via Universal Licensing System and Coast Guard Vessel Documentation Center.

Last reported at 2018-Jun-22 22:59 UTC. Time now 2018-Jun-22 23:01 UTC.
Position N 45°33' W 122°42'.

Length 35 m; draft 5.3 m.

Type: Towing. MMSI: 366938510.

Date/timePositionNaut miles runAvg speedWind from/ knotsBaromVisibWave heightAir tempDewpointWater temp
2018-Jun-22 22:59N 45°33' W 122°42'0 0.0
2018-Jun-22 22:29N 45°33' W 122°42'0 0.0
2018-Jun-22 21:59N 45°33' W 122°42'0 0.0
2018-Jun-22 21:29N 45°33' W 122°42'0 0.0
2018-Jun-22 20:47N 45°33' W 122°42'0 0.0
2018-Jun-22 20:26N 45°33' W 122°42'0 0.0
2018-Jun-22 20:00N 45°33' W 122°42'0 0.0
2018-Jun-22 19:30N 45°33' W 122°42'0 0.0
2018-Jun-22 19:00N 45°33' W 122°42'0 0.0
2018-Jun-22 18:30N 45°33' W 122°42'0 0.0
2018-Jun-22 18:00N 45°33' W 122°42'0 0.0
2018-Jun-22 17:30N 45°33' W 122°42'0 0.0
2018-Jun-22 17:00N 45°33' W 122°42'0 0.0
2018-Jun-22 16:30N 45°33' W 122°42'0 0.0
2018-Jun-22 16:00N 45°33' W 122°42'0 0.0
2018-Jun-22 15:30N 45°33' W 122°42'0 0.0
2018-Jun-22 15:00N 45°33' W 122°42'0 0.0
2018-Jun-22 14:30N 45°33' W 122°42'0 0.0
2018-Jun-22 13:59N 45°33' W 122°42'0 0.8
2018-Jun-22 13:30N 45°33' W 122°43'1 2.5
2018-Jun-22 13:00N 45°34' W 122°44'0 0.3
2018-Jun-22 12:27N 45°34' W 122°44'1 3.4
2018-Jun-22 12:00N 45°35' W 122°46'3 6.1
2018-Jun-22 11:30N 45°38' W 122°47'3 6.8
2018-Jun-22 11:00N 45°41' W 122°47'4 7.8
2018-Jun-22 10:30N 45°45' W 122°46'4 7.8
2018-Jun-22 10:00N 45°49' W 122°48'4 7.6
2018-Jun-22 09:30N 45°52' W 122°47'4 7.7
2018-Jun-22 09:00N 45°56' W 122°48'5 8.1
2018-Jun-22 08:23N 46°01' W 122°51'3 8.2
2018-Jun-22 08:00N 46°04' W 122°53'4 8.3
2018-Jun-22 07:31N 46°06' W 122°58'5 8.7
2018-Jun-22 06:59N 46°09' W 123°03'4 8.9
2018-Jun-22 06:30N 46°11' W 123°08'7 9.1
2018-Jun-22 05:44N 46°09' W 123°18'2 9.4
2018-Jun-22 05:30N 46°09' W 123°21'4 8.8
2018-Jun-22 05:00N 46°11' W 123°26'5 9.3
2018-Jun-22 04:30N 46°16' W 123°28'5 9.7
2018-Jun-22 04:00N 46°15' W 123°35'4 8.3
2018-Jun-22 03:30N 46°15' W 123°41'3 6.8
2018-Jun-22 03:01N 46°13' W 123°45'610.7
2018-Jun-22 02:29N 46°11' W 123°52'4 7.3
2018-Jun-22 02:00N 46°13' W 123°57'4 7.4
2018-Jun-22 01:30N 46°15' W 124°01'3 6.6
2018-Jun-22 01:00N 46°15' W 124°06'2 4.8
2018-Jun-22 00:30N 46°13' W 124°08'3 6.8
2018-Jun-22 00:01N 46°11' W 124°12'4 7.9
2018-Jun-21 23:31N 46°08' W 124°16'4 7.8
2018-Jun-21 23:00N 46°06' W 124°20'4 8.0
2018-Jun-21 22:30N 46°03' W 124°24'4 7.8
2018-Jun-21 22:01N 45°60' W 124°28'4 7.8
2018-Jun-21 21:30N 45°57' W 124°32'4 7.6
2018-Jun-21 21:00N 45°53' W 124°33'4 8.1
2018-Jun-21 20:30N 45°49' W 124°33'4 8.0
2018-Jun-21 20:00N 45°45' W 124°33'4 8.0
2018-Jun-21 19:30N 45°41' W 124°34'4 8.1
2018-Jun-21 19:00N 45°37' W 124°35'4 8.2
2018-Jun-21 18:30N 45°33' W 124°35'4 8.5
2018-Jun-21 18:00N 45°29' W 124°35'4 8.5
2018-Jun-21 17:30N 45°25' W 124°36'4 8.3
2018-Jun-21 16:58N 45°20' W 124°36'4 8.2
2018-Jun-21 16:29N 45°16' W 124°36'4 7.8
2018-Jun-21 15:56N 45°12' W 124°37'399 7.7
2018-Jun-19 12:17N 38°34' W 124°02'3 8.0
2018-Jun-19 11:58N 38°32' W 124°00'4 8.0
2018-Jun-19 11:30N 38°29' W 123°57'5 7.9
2018-Jun-19 10:53N 38°26' W 123°52'3 7.9
2018-Jun-19 10:30N 38°24' W 123°49'4 7.9
2018-Jun-19 10:00N 38°22' W 123°45'4 7.7
2018-Jun-19 09:30N 38°20' W 123°41'4 7.3
2018-Jun-19 09:00N 38°18' W 123°37'4 7.5
2018-Jun-19 08:30N 38°16' W 123°33'4 7.7
2018-Jun-19 08:00N 38°14' W 123°29'4 7.6
2018-Jun-19 07:30N 38°12' W 123°25'4 7.7
2018-Jun-19 07:00N 38°09' W 123°21'4 7.9
2018-Jun-19 06:30N 38°06' W 123°17'4 8.2
2018-Jun-19 06:00N 38°03' W 123°14'4 8.8
2018-Jun-19 05:30N 38°00' W 123°10'4 8.8
2018-Jun-19 05:00N 37°57' W 123°06'4 9.0
2018-Jun-19 04:30N 37°55' W 123°01'4 8.8
2018-Jun-19 04:00N 37°53' W 122°56'4 8.9
2018-Jun-19 03:30N 37°51' W 122°51'4 8.8
2018-Jun-19 03:00N 37°49' W 122°46'4 7.4
2018-Jun-19 02:30N 37°47' W 122°42'4 7.4
2018-Jun-19 02:00N 37°46' W 122°37'4 7.8
2018-Jun-19 01:30N 37°48' W 122°33'4 7.7
2018-Jun-19 01:00N 37°49' W 122°28'3 7.0
2018-Jun-19 00:30N 37°51' W 122°25'4 7.0
2018-Jun-19 00:00N 37°55' W 122°26'1 2.2
2018-Jun-18 23:31N 37°55' W 122°25'0 0.6
2018-Jun-18 23:00N 37°55' W 122°25'0 0.5
2018-Jun-18 22:30N 37°55' W 122°25'0 0.0
2018-Jun-18 21:58N 37°55' W 122°25'0 0.0
2018-Jun-18 21:28N 37°55' W 122°25'0 0.0
2018-Jun-18 20:58N 37°55' W 122°25'0 0.0
2018-Jun-18 20:28N 37°55' W 122°25'0 0.0
2018-Jun-18 19:58N 37°55' W 122°25'0 0.0
2018-Jun-18 19:28N 37°55' W 122°25'0 0.0
2018-Jun-18 18:16N 37°55' W 122°25'0 0.0
2018-Jun-18 17:58N 37°55' W 122°25'0 0.0
2018-Jun-18 17:28N 37°55' W 122°25'0 0.0
2018-Jun-18 15:58N 37°55' W 122°25'0 0.0
2018-Jun-18 08:10N 37°55' W 122°25'0 0.0
2018-Jun-18 07:34N 37°55' W 122°25'0 0.0
2018-Jun-17 23:25N 37°55' W 122°25'0 0.0
2018-Jun-17 22:46N 37°55' W 122°25'0 0.5
2018-Jun-17 22:16N 37°55' W 122°25'0 0.2
2018-Jun-17 22:00N 37°55' W 122°25'2 4.4
2018-Jun-17 21:30N 37°54' W 122°23'1 1.7
2018-Jun-17 21:00N 37°55' W 122°22'0 0.0
2018-Jun-17 20:26N 37°55' W 122°22'0 0.0
2018-Jun-17 19:50N 37°55' W 122°22'0 0.0
2018-Jun-17 19:23N 37°55' W 122°22'0 0.0
2018-Jun-17 18:59N 37°55' W 122°22'0 0.0
2018-Jun-17 18:29N 37°55' W 122°22'0 0.0
2018-Jun-17 17:59N 37°55' W 122°22'0 0.0
2018-Jun-17 17:29N 37°55' W 122°22'0 0.0
2018-Jun-17 16:59N 37°55' W 122°22'0 0.0
2018-Jun-17 16:29N 37°55' W 122°22'0 0.0
2018-Jun-17 15:59N 37°55' W 122°22'0 0.0
2018-Jun-17 15:29N 37°55' W 122°22'0 0.0
2018-Jun-17 14:59N 37°55' W 122°22'0 0.0
2018-Jun-17 14:29N 37°55' W 122°22'0 0.0
2018-Jun-17 13:53N 37°55' W 122°22'0 0.0
2018-Jun-17 13:29N 37°55' W 122°22'0 0.0
2018-Jun-17 12:59N 37°55' W 122°22'0 0.0
2018-Jun-17 12:29N 37°55' W 122°22'0 0.0
2018-Jun-17 11:59N 37°55' W 122°22'0 0.0
2018-Jun-17 11:17N 37°55' W 122°22'0 0.0
2018-Jun-17 10:53N 37°55' W 122°22'0 0.0
2018-Jun-17 10:29N 37°55' W 122°22'0 0.0
2018-Jun-17 09:59N 37°55' W 122°22'0 0.0
2018-Jun-17 09:29N 37°55' W 122°22'0 0.0
2018-Jun-17 08:59N 37°55' W 122°22'0 0.0
2018-Jun-17 08:29N 37°55' W 122°22'0 0.0
2018-Jun-17 07:47N 37°55' W 122°22'0 0.0
2018-Jun-17 07:17N 37°55' W 122°22'0 0.0
2018-Jun-17 06:59N 37°55' W 122°22'0 0.0
2018-Jun-17 06:11N 37°55' W 122°22'0 0.0
2018-Jun-17 05:59N 37°55' W 122°22'0 0.0
2018-Jun-17 05:29N 37°55' W 122°22'0 0.0
2018-Jun-17 04:05N 37°55' W 122°22'0 0.0
2018-Jun-17 03:59N 37°55' W 122°22'0 0.0
2018-Jun-17 03:29N 37°55' W 122°22'0 0.0
2018-Jun-17 02:59N 37°55' W 122°22'0 0.0
2018-Jun-17 02:17N 37°55' W 122°22'0 0.0
2018-Jun-17 02:00N 37°55' W 122°22'2 1.0
2018-Jun-16 23:49N 37°55' W 122°25'0 0.0
2018-Jun-16 23:10N 37°55' W 122°25'0 0.0
2018-Jun-16 22:43N 37°55' W 122°25'0 0.0
2018-Jun-16 22:25N 37°55' W 122°25'0 0.0
2018-Jun-16 21:52N 37°55' W 122°25'0 0.0
2018-Jun-16 21:28N 37°55' W 122°25'0 0.2
2018-Jun-16 21:00N 37°55' W 122°25'0 0.2
2018-Jun-16 20:30N 37°55' W 122°25'2 4.8
2018-Jun-16 20:00N 37°54' W 122°22'1 1.1
2018-Jun-16 19:29N 37°55' W 122°22'0 0.1
2018-Jun-16 18:55N 37°55' W 122°22'0 0.1
2018-Jun-16 18:19N 37°55' W 122°22'0 0.0
2018-Jun-16 17:58N 37°55' W 122°22'0 0.0
2018-Jun-16 17:28N 37°55' W 122°22'0 0.0
2018-Jun-16 16:40N 37°55' W 122°22'0 0.0
2018-Jun-16 16:28N 37°55' W 122°22'0 0.0
2018-Jun-16 15:58N 37°55' W 122°22'0 0.0
2018-Jun-16 15:25N 37°55' W 122°22'0 0.0
2018-Jun-16 14:55N 37°55' W 122°22'0 0.0
2018-Jun-16 14:25N 37°55' W 122°22'0 0.0
2018-Jun-16 13:58N 37°55' W 122°22'0 0.0
2018-Jun-16 13:25N 37°55' W 122°22'0 0.0
2018-Jun-16 11:13N 37°55' W 122°22'0 0.0
2018-Jun-16 10:55N 37°55' W 122°22'0 0.0
2018-Jun-16 10:25N 37°55' W 122°22'0 0.0
2018-Jun-16 09:55N 37°55' W 122°22'0 0.0
2018-Jun-16 09:13N 37°55' W 122°22'0 0.0
2018-Jun-16 08:55N 37°55' W 122°22'0 0.0
2018-Jun-16 08:25N 37°55' W 122°22'0 0.0
2018-Jun-16 07:43N 37°55' W 122°22'0 0.0
2018-Jun-16 06:13N 37°55' W 122°22'0 0.0
2018-Jun-16 05:37N 37°55' W 122°22'0 0.0
2018-Jun-16 05:19N 37°55' W 122°22'0 0.0
2018-Jun-16 04:55N 37°55' W 122°22'0 0.0
2018-Jun-16 04:19N 37°55' W 122°22'0 0.0
2018-Jun-16 03:55N 37°55' W 122°22'0 0.0
2018-Jun-16 03:22N 37°55' W 122°22'0 0.0
2018-Jun-16 02:55N 37°55' W 122°22'0 0.0
2018-Jun-16 02:25N 37°55' W 122°22'0 0.0
2018-Jun-16 01:58N 37°55' W 122°22'0 0.0
2018-Jun-16 00:01N 37°55' W 122°22'0 0.0
2018-Jun-15 23:52N 37°55' W 122°22'0 0.0
2018-Jun-15 23:28N 37°55' W 122°22'0 0.0
2018-Jun-15 22:58N 37°55' W 122°22'0 0.0
2018-Jun-15 22:28N 37°55' W 122°22'0 0.0
2018-Jun-15 21:40N 37°55' W 122°22'0 0.0
2018-Jun-15 21:22N 37°55' W 122°22'0 0.0
2018-Jun-15 20:58N 37°55' W 122°22'0 0.0
2018-Jun-15 20:28N 37°55' W 122°22'0 0.0
2018-Jun-15 19:40N 37°55' W 122°22'0 0.0
2018-Jun-15 19:28N 37°55' W 122°22'0 0.0
2018-Jun-15 18:52N 37°55' W 122°22'0 0.0
2018-Jun-15 17:46N 37°55' W 122°22'0 0.0
2018-Jun-15 17:28N 37°55' W 122°22'0 0.0
2018-Jun-15 16:58N 37°55' W 122°22'0 0.0
2018-Jun-15 16:19N 37°55' W 122°22'0 0.0
2018-Jun-15 15:55N 37°55' W 122°22'0 0.0
2018-Jun-15 15:25N 37°55' W 122°22'0 0.0
2018-Jun-15 14:55N 37°55' W 122°22'0 0.0
2018-Jun-15 14:28N 37°55' W 122°22'0 0.0
2018-Jun-15 13:55N 37°55' W 122°22'0 0.0
2018-Jun-15 13:25N 37°55' W 122°22'0 0.0
2018-Jun-15 12:55N 37°55' W 122°22'0 0.0
2018-Jun-15 12:25N 37°55' W 122°22'0 0.0
2018-Jun-15 11:55N 37°55' W 122°22'0 0.0
2018-Jun-15 11:25N 37°55' W 122°22'0 0.0
2018-Jun-15 09:37N 37°55' W 122°22'0 0.0
2018-Jun-15 09:19N 37°55' W 122°22'0 0.0
2018-Jun-15 08:55N 37°55' W 122°22'0 0.0
2018-Jun-15 08:19N 37°55' W 122°22'0 0.0
2018-Jun-15 07:55N 37°55' W 122°22'0 0.0
2018-Jun-15 07:28N 37°55' W 122°22'0 0.0
2018-Jun-15 06:52N 37°55' W 122°22'0 0.0
2018-Jun-15 04:13N 37°55' W 122°22'0 0.0
2018-Jun-15 03:52N 37°55' W 122°22'0 0.0
2018-Jun-15 03:28N 37°55' W 122°22'0 0.0
2018-Jun-15 02:58N 37°55' W 122°22'0 0.0
2018-Jun-15 02:30N 37°55' W 122°22'1 2.0
2018-Jun-15 02:00N 37°54' W 122°23'2 2.9
2018-Jun-15 01:26N 37°55' W 122°25'0 0.0
2018-Jun-15 00:56N 37°55' W 122°25'0 0.0
2018-Jun-15 00:26N 37°55' W 122°25'0 0.0
2018-Jun-14 23:56N 37°55' W 122°25'0 0.0
2018-Jun-14 23:26N 37°55' W 122°25'0 0.0
2018-Jun-14 22:50N 37°55' W 122°25'0 0.0
2018-Jun-14 21:56N 37°55' W 122°25'0 0.0
2018-Jun-14 21:29N 37°55' W 122°25'0 0.0
2018-Jun-14 19:44N 37°55' W 122°25'0 0.0
2018-Jun-14 19:26N 37°55' W 122°25'0 0.0
2018-Jun-14 17:32N 37°55' W 122°25'0 0.0
2018-Jun-14 17:14N 37°55' W 122°25'0 0.0
2018-Jun-14 16:56N 37°55' W 122°25'0 0.0
2018-Jun-14 16:26N 37°55' W 122°25'0 0.0
2018-Jun-14 15:50N 37°55' W 122°25'0 0.0
2018-Jun-14 15:17N 37°55' W 122°25'0 0.0
2018-Jun-14 14:56N 37°55' W 122°25'0 0.0
2018-Jun-14 14:23N 37°55' W 122°25'0 0.0
2018-Jun-14 11:56N 37°55' W 122°25'0 0.4
2018-Jun-14 11:13N 37°55' W 122°25'0 0.2
2018-Jun-14 11:00N 37°55' W 122°25'2 3.8
2018-Jun-14 10:30N 37°54' W 122°23'1 1.8
2018-Jun-14 09:54N 37°55' W 122°22'0 0.0
2018-Jun-14 09:30N 37°55' W 122°22'0 0.0
2018-Jun-14 09:00N 37°55' W 122°22'0 0.0
2018-Jun-14 08:30N 37°55' W 122°22'0 0.0
2018-Jun-14 08:00N 37°55' W 122°22'0 0.0
2018-Jun-14 07:30N 37°55' W 122°22'0 0.0
2018-Jun-14 07:00N 37°55' W 122°22'0 0.0
2018-Jun-14 06:30N 37°55' W 122°22'0 0.0
2018-Jun-14 06:00N 37°55' W 122°22'0 0.0
2018-Jun-14 05:30N 37°55' W 122°22'0 0.0
2018-Jun-14 04:55N 37°55' W 122°22'0 0.0
2018-Jun-14 04:25N 37°55' W 122°22'0 0.0
2018-Jun-14 03:58N 37°55' W 122°22'0 0.0
2018-Jun-14 03:25N 37°55' W 122°22'0 0.0
2018-Jun-14 02:52N 37°55' W 122°22'0 0.0
2018-Jun-14 02:28N 37°55' W 122°22'0 0.0
2018-Jun-14 01:58N 37°55' W 122°22'0 0.0
2018-Jun-14 01:28N 37°55' W 122°22'0 0.0
2018-Jun-14 00:58N 37°55' W 122°22'0 0.0
2018-Jun-14 00:28N 37°55' W 122°22'0 0.0
2018-Jun-13 23:55N 37°55' W 122°22'0 0.0
2018-Jun-13 23:28N 37°55' W 122°22'0 0.0
2018-Jun-13 22:58N 37°55' W 122°22'0 0.0
2018-Jun-13 22:28N 37°55' W 122°22'0 0.0
2018-Jun-13 21:58N 37°55' W 122°22'0 0.0
2018-Jun-13 21:28N 37°55' W 122°22'0 0.0
2018-Jun-13 20:52N 37°55' W 122°22'0 0.0
2018-Jun-13 20:28N 37°55' W 122°22'0 0.0
2018-Jun-13 19:58N 37°55' W 122°22'0 0.0
2018-Jun-13 19:28N 37°55' W 122°22'0 0.3
2018-Jun-13 18:55N 37°55' W 122°22'0 0.0
2018-Jun-13 18:19N 37°55' W 122°22'0 0.0
2018-Jun-13 17:55N 37°55' W 122°22'0 0.0
2018-Jun-13 17:25N 37°55' W 122°22'0 0.0
2018-Jun-13 16:55N 37°55' W 122°22'0 0.0
2018-Jun-13 16:28N 37°55' W 122°22'0 0.0
2018-Jun-13 15:55N 37°55' W 122°22'0 0.0
2018-Jun-13 15:28N 37°55' W 122°22'0 0.0
2018-Jun-13 14:58N 37°55' W 122°22'0 0.0
2018-Jun-13 14:25N 37°55' W 122°22'0 0.0
2018-Jun-13 13:37N 37°55' W 122°22'0 0.0
2018-Jun-13 13:25N 37°55' W 122°22'0 0.0
2018-Jun-13 12:55N 37°55' W 122°22'0 0.4
2018-Jun-13 12:25N 37°55' W 122°22'0 0.0
2018-Jun-13 11:55N 37°55' W 122°22'0 0.0
2018-Jun-13 11:25N 37°55' W 122°22'0 0.0
2018-Jun-13 10:49N 37°55' W 122°22'0 0.0
2018-Jun-13 10:13N 37°55' W 122°22'0 0.0
2018-Jun-13 09:55N 37°55' W 122°22'0 0.0
2018-Jun-13 09:25N 37°55' W 122°22'0 0.0
2018-Jun-13 08:49N 37°55' W 122°22'0 0.0
2018-Jun-13 08:25N 37°55' W 122°22'0 0.0
2018-Jun-13 07:55N 37°55' W 122°22'0 0.0
2018-Jun-13 07:19N 37°55' W 122°22'0 0.0
2018-Jun-13 06:55N 37°55' W 122°22'0 0.0
2018-Jun-13 06:25N 37°55' W 122°22'0 0.0
2018-Jun-13 05:55N 37°55' W 122°22'0 0.0
2018-Jun-13 05:28N 37°55' W 122°22'0 0.0
2018-Jun-13 04:58N 37°55' W 122°22'0 0.0
2018-Jun-13 04:25N 37°55' W 122°22'0 0.0
2018-Jun-13 03:58N 37°55' W 122°22'0 0.0
2018-Jun-13 03:28N 37°55' W 122°22'0 0.0
2018-Jun-13 02:58N 37°55' W 122°22'0 0.0
2018-Jun-13 02:28N 37°55' W 122°22'0 0.0
2018-Jun-13 01:58N 37°55' W 122°22'0 0.0
2018-Jun-13 01:28N 37°55' W 122°22'0 0.0
2018-Jun-13 00:58N 37°55' W 122°22'0 0.0
2018-Jun-13 00:28N 37°55' W 122°22'0 0.0
2018-Jun-12 23:58N 37°55' W 122°22'0 0.0
2018-Jun-12 23:28N 37°55' W 122°22'  

Dump ship's entire track history